Time,TemperatureF,DewpointF,PressureIn,WindDirection,WindDirectionDegrees,WindSpeedMPH,WindSpeedGustMPH,Humidity,HourlyPrecipIn,Conditions,Clouds,dailyrainin,SoftwareType,DateUTC
2013-01-01 00:02:00,-5.0,-9.0,-100.00,NE,47,1.0,4.0,85,0.00,,,-99.99,,2013-01-01 07:02:00,
2013-01-01 00:12:00,-1.0,-4.0,-100.00,NW,304,2.0,4.0,89,0.00,,,-99.99,,2013-01-01 07:12:00,
2013-01-01 00:22:00,-1.0,-3.0,-100.00,WNW,287,3.0,6.0,90,0.00,,,-99.99,,2013-01-01 07:22:00,
2013-01-01 00:32:00,0.0,-3.0,-100.00,WNW,282,4.0,6.0,88,0.00,,,-99.99,,2013-01-01 07:32:00,
2013-01-01 00:42:00,0.0,-2.0,-100.00,WNW,285,4.0,6.0,88,0.00,,,-99.99,,2013-01-01 07:42:00,
2013-01-01 00:52:00,-1.0,-5.0,-100.00,NW,308,4.0,6.0,85,0.00,,,-99.99,,2013-01-01 07:52:00,
2013-01-01 01:02:00,0.0,-3.0,-100.00,NW,306,2.0,4.0,88,0.00,,,-99.99,,2013-01-01 08:02:00,
2013-01-01 01:11:00,1.0,-1.0,-100.00,WNW,301,3.0,4.0,89,0.00,,,-99.99,,2013-01-01 08:11:00,
2013-01-01 01:22:00,0.0,-2.0,-100.00,WNW,284,4.0,6.0,88,0.00,,,-99.99,,2013-01-01 08:22:00,
2013-01-01 01:32:00,4.0,2.0,-100.00,West,275,2.0,4.0,91,0.00,,,-99.99,,2013-01-01 08:32:00,
2013-01-01 01:42:00,5.0,1.0,-100.00,SSW,208,2.0,6.0,86,0.00,,,-99.99,,2013-01-01 08:42:00,
2013-01-01 01:53:00,4.0,2.0,-100.00,SSW,199,3.0,5.0,90,0.00,,,-99.99,,2013-01-01 08:53:00,
2013-01-01 02:02:00,4.0,2.0,-100.00,SSW,206,4.0,7.0,89,0.00,,,-99.99,,2013-01-01 09:02:00,
2013-01-01 02:12:00,4.0,2.0,-100.00,SSW,195,3.0,6.0,90,0.00,,,-99.99,,2013-01-01 09:12:00,
2013-01-01 02:22:00,4.0,1.0,-100.00,South,176,4.0,7.0,88,0.00,,,-99.99,,2013-01-01 09:22:00,
2013-01-01 02:32:00,4.0,1.0,-100.00,SSE,160,6.0,7.0,88,0.00,,,-99.99,,2013-01-01 09:32:00,
2013-01-01 02:42:00,3.0,0.0,-100.00,South,178,6.0,7.0,88,0.00,,,-99.99,,2013-01-01 09:42:00,
2013-01-01 02:52:00,2.0,-1.0,-100.00,SSE,148,2.0,5.0,86,0.00,,,-99.99,,2013-01-01 09:52:00,
2013-01-01 03:02:00,1.0,-1.0,-100.00,East,93,1.0,3.0,87,0.00,,,-99.99,,2013-01-01 10:02:00,
2013-01-01 03:12:00,0.0,-3.0,-100.00,East,97,1.0,4.0,87,0.00,,,-99.99,,2013-01-01 10:12:00,
2013-01-01 03:22:00,0.0,-3.0,-100.00,NE,54,1.0,2.0,87,0.00,,,-99.99,,2013-01-01 10:22:00,
2013-01-01 03:33:00,1.0,-2.0,-100.00,NNE,30,1.0,2.0,87,0.00,,,-99.99,,2013-01-01 10:33:00,
2013-01-01 03:42:00,1.0,-2.0,-100.00,NNE,16,1.0,3.0,88,0.00,,,-99.99,,2013-01-01 10:42:00,
2013-01-01 03:52:00,2.0,0.0,-100.00,NNE,23,4.0,8.0,90,0.00,,,-99.99,,2013-01-01 10:52:00,
2013-01-01 04:02:00,2.0,0.0,-100.00,North,4,6.0,9.0,89,0.00,,,-99.99,,2013-01-01 11:02:00,
2013-01-01 04:12:00,3.0,0.0,-100.00,North,356,4.0,6.0,89,0.00,,,-99.99,,2013-01-01 11:12:00,
2013-01-01 04:22:00,3.0,0.0,-100.00,NW,312,2.0,4.0,88,0.00,,,-99.99,,2013-01-01 11:22:00,
2013-01-01 04:32:00,3.0,0.0,-100.00,West,278,2.0,6.0,89,0.00,,,-99.99,,2013-01-01 11:32:00,
2013-01-01 04:42:00,3.0,0.0,-100.00,West,263,2.0,4.0,88,0.00,,,-99.99,,2013-01-01 11:42:00,
2013-01-01 04:52:00,3.0,0.0,-100.00,West,261,2.0,4.0,89,0.00,,,-99.99,,2013-01-01 11:52:00,
2013-01-01 05:02:00,4.0,2.0,-100.00,WSW,237,3.0,5.0,89,0.00,,,-99.99,,2013-01-01 12:02:00,
2013-01-01 05:12:00,4.0,1.0,-100.00,SW,222,2.0,4.0,88,0.00,,,-99.99,,2013-01-01 12:12:00,
2013-01-01 05:22:00,3.0,0.0,-100.00,South,175,3.0,6.0,88,0.00,,,-99.99,,2013-01-01 12:22:00,
2013-01-01 05:32:00,1.0,-2.0,-100.00,South,181,4.0,6.0,87,0.00,,,-99.99,,2013-01-01 12:32:00,
2013-01-01 05:42:00,1.0,-2.0,-100.00,South,186,4.0,6.0,88,0.00,,,-99.99,,2013-01-01 12:42:00,
2013-01-01 05:52:00,1.0,-2.0,-100.00,South,188,4.0,6.0,88,0.00,,,-99.99,,2013-01-01 12:52:00,
2013-01-01 06:02:00,0.0,-2.0,-100.00,South,178,4.0,6.0,88,0.00,,,-99.99,,2013-01-01 13:02:00,
2013-01-01 06:12:00,0.0,-3.0,-100.00,South,176,4.0,6.0,87,0.00,,,-99.99,,2013-01-01 13:12:00,
2013-01-01 06:22:00,-1.0,-4.0,-100.00,South,175,2.0,4.0,86,0.00,,,-99.99,,2013-01-01 13:22:00,
2013-01-01 06:32:00,-2.0,-6.0,-100.00,ENE,66,1.0,3.0,84,0.00,,,-99.99,,2013-01-01 13:32:00,
2013-01-01 06:42:00,-3.0,-7.0,-100.00,NNE,32,1.0,3.0,85,0.00,,,-99.99,,2013-01-01 13:42:00,
2013-01-01 06:52:00,-3.0,-7.0,-100.00,WSW,257,0.0,2.0,84,0.00,,,-99.99,,2013-01-01 13:52:00,
2013-01-01 07:02:00,-1.0,-3.0,-100.00,SW,224,2.0,4.0,89,0.00,,,-99.99,,2013-01-01 14:02:00,
2013-01-01 07:12:00,-3.0,-6.0,-100.00,SW,226,3.0,4.0,90,0.00,,,-99.99,,2013-01-01 14:12:00,
2013-01-01 07:22:00,-6.0,-10.0,-100.00,West,263,4.0,5.0,81,0.00,,,-99.99,,2013-01-01 14:22:00,
2013-01-01 07:32:00,-3.0,-5.0,-100.00,WSW,247,3.0,6.0,90,0.00,,,-99.99,,2013-01-01 14:32:00,
2013-01-01 07:42:00,-1.0,-5.0,-100.00,WSW,241,3.0,7.0,82,0.00,,,-99.99,,2013-01-01 14:42:00,
2013-01-01 07:53:00,-2.0,-5.0,-100.00,WSW,254,2.0,4.0,89,0.00,,,-99.99,,2013-01-01 14:53:00,
2013-01-01 08:03:00,0.0,-2.0,-100.00,SW,234,2.0,4.0,89,0.00,,,-99.99,,2013-01-01 15:03:00,
2013-01-01 08:12:00,-1.0,-4.0,-100.00,West,265,2.0,4.0,87,0.00,,,-99.99,,2013-01-01 15:12:00,
2013-01-01 08:22:00,1.0,-2.0,-100.00,SW,223,4.0,6.0,88,0.00,,,-99.99,,2013-01-01 15:22:00,
2013-01-01 08:33:00,0.0,-3.0,-100.00,SW,226,4.0,6.0,86,0.00,,,-99.99,,2013-01-01 15:33:00,
2013-01-01 08:42:00,0.0,-4.0,-100.00,South,191,4.0,6.0,84,0.00,,,-99.99,,2013-01-01 15:42:00,
2013-01-01 08:53:00,2.0,-1.0,-100.00,South,186,7.0,9.0,87,0.00,,,-99.99,,2013-01-01 15:53:00,
2013-01-01 09:02:00,0.0,-3.0,-100.00,SSE,161,6.0,7.0,87,0.00,,,-99.99,,2013-01-01 16:02:00,
2013-01-01 09:12:00,0.0,-5.0,-100.00,SSE,154,5.0,7.0,81,0.00,,,-99.99,,2013-01-01 16:12:00,
2013-01-01 09:22:00,1.0,-2.0,-100.00,SE,138,4.0,6.0,88,0.00,,,-99.99,,2013-01-01 16:22:00,
2013-01-01 09:33:00,0.0,-3.0,-100.00,ENE,71,2.0,6.0,86,0.00,,,-99.99,,2013-01-01 16:33:00,
2013-01-01 09:42:00,1.0,-2.0,-100.00,ESE,114,3.0,6.0,87,0.00,,,-99.99,,2013-01-01 16:42:00,
2013-01-01 09:52:00,0.0,-3.0,-100.00,East,97,2.0,4.0,87,0.00,,,-99.99,,2013-01-01 16:52:00,
2013-01-01 10:02:00,3.0,0.0,-100.00,SE,131,2.0,4.0,88,0.00,,,-99.99,,2013-01-01 17:02:00,
2013-01-01 10:12:00,3.0,-1.0,-100.00,ESE,116,1.0,3.0,87,0.00,,,-99.99,,2013-01-01 17:12:00,
2013-01-01 10:22:00,4.0,1.0,-100.00,ESE,116,1.0,4.0,86,0.00,,,-99.99,,2013-01-01 17:22:00,
2013-01-01 10:33:00,5.0,2.0,-100.00,SSE,167,1.0,6.0,89,0.00,,,-99.99,,2013-01-01 17:33:00,
2013-01-01 10:42:00,4.0,1.0,-100.00,SSE,165,2.0,6.0,85,0.00,,,-99.99,,2013-01-01 17:42:00,
2013-01-01 10:52:00,4.0,1.0,-100.00,SSE,158,2.0,5.0,87,0.00,,,-99.99,,2013-01-01 17:52:00,
2013-01-01 11:03:00,5.0,1.0,-100.00,South,169,1.0,3.0,83,0.00,,,-99.99,,2013-01-01 18:03:00,
2013-01-01 11:12:00,4.0,1.0,-100.00,SSE,165,2.0,4.0,85,0.00,,,-99.99,,2013-01-01 18:12:00,
2013-01-01 11:22:00,9.0,5.0,-100.00,SSW,210,1.0,2.0,84,0.00,,,-99.99,,2013-01-01 18:22:00,
2013-01-01 11:33:00,8.0,3.0,-100.00,SE,141,1.0,3.0,82,0.00,,,-99.99,,2013-01-01 18:33:00,
2013-01-01 11:42:00,8.0,4.0,-100.00,SW,220,1.0,3.0,84,0.00,,,-99.99,,2013-01-01 18:42:00,
2013-01-01 11:52:00,10.0,5.0,-100.00,SSW,198,1.0,2.0,81,0.00,,,-99.99,,2013-01-01 18:52:00,
2013-01-01 12:02:00,8.0,3.0,-100.00,SSE,158,1.0,3.0,80,0.00,,,-99.99,,2013-01-01 19:02:00,
2013-01-01 12:12:00,8.0,3.0,-100.00,SE,140,1.0,4.0,78,0.00,,,-99.99,,2013-01-01 19:12:00,
2013-01-01 12:22:00,7.0,2.0,-100.00,SE,144,2.0,6.0,78,0.00,,,-99.99,,2013-01-01 19:22:00,
2013-01-01 12:32:00,7.0,2.0,-100.00,SE,141,2.0,6.0,79,0.00,,,-99.99,,2013-01-01 19:32:00,
2013-01-01 12:42:00,8.0,2.0,-100.00,SE,145,2.0,6.0,78,0.00,,,-99.99,,2013-01-01 19:42:00,
2013-01-01 12:52:00,6.0,1.0,-100.00,SSE,154,3.0,6.0,80,0.00,,,-99.99,,2013-01-01 19:52:00,
2013-01-01 13:02:00,6.0,2.0,-100.00,SE,137,3.0,7.0,81,0.00,,,-99.99,,2013-01-01 20:02:00,
2013-01-01 13:12:00,7.0,3.0,-100.00,SE,137,2.0,7.0,81,0.00,,,-99.99,,2013-01-01 20:12:00,
2013-01-01 13:22:00,8.0,3.0,-100.00,SE,144,2.0,4.0,80,0.00,,,-99.99,,2013-01-01 20:22:00,
2013-01-01 13:32:00,7.0,2.0,-100.00,SE,144,3.0,6.0,80,0.00,,,-99.99,,2013-01-01 20:32:00,
2013-01-01 13:42:00,8.0,3.0,-100.00,SE,126,2.0,4.0,79,0.00,,,-99.99,,2013-01-01 20:42:00,
2013-01-01 13:52:00,8.0,3.0,-100.00,SSE,161,2.0,4.0,78,0.00,,,-99.99,,2013-01-01 20:52:00,
2013-01-01 14:03:00,9.0,3.0,-100.00,SE,137,1.0,4.0,77,0.00,,,-99.99,,2013-01-01 21:03:00,
2013-01-01 14:12:00,8.0,1.0,-100.00,ENE,78,1.0,3.0,74,0.00,,,-99.99,,2013-01-01 21:12:00,
2013-01-01 14:22:00,12.0,3.0,-100.00,North,7,1.0,2.0,67,0.00,,,-99.99,,2013-01-01 21:22:00,
2013-01-01 14:33:00,9.0,2.0,-100.00,WSW,239,3.0,5.0,73,0.00,,,-99.99,,2013-01-01 21:33:00,
2013-01-01 14:42:00,11.0,3.0,-100.00,WSW,239,3.0,4.0,68,0.00,,,-99.99,,2013-01-01 21:42:00,
2013-01-01 14:52:00,12.0,2.0,-100.00,SW,232,3.0,5.0,66,0.00,,,-99.99,,2013-01-01 21:52:00,
2013-01-01 15:02:00,11.0,3.0,-100.00,SSW,192,4.0,6.0,67,0.00,,,-99.99,,2013-01-01 22:02:00,
2013-01-01 15:12:00,14.0,2.0,-100.00,SSW,208,2.0,6.0,60,0.00,,,-99.99,,2013-01-01 22:12:00,
2013-01-01 15:22:00,11.0,2.0,-100.00,SSW,210,2.0,4.0,64,0.00,,,-99.99,,2013-01-01 22:22:00,
2013-01-01 15:33:00,12.0,2.0,-100.00,SSW,195,2.0,3.0,62,0.00,,,-99.99,,2013-01-01 22:33:00,
2013-01-01 15:42:00,12.0,2.0,-100.00,SSW,199,2.0,3.0,62,0.00,,,-99.99,,2013-01-01 22:42:00,
2013-01-01 15:52:00,10.0,1.0,-100.00,SW,216,4.0,7.0,66,0.00,,,-99.99,,2013-01-01 22:52:00,
2013-01-01 16:02:00,11.0,1.0,-100.00,SW,224,3.0,5.0,65,0.00,,,-99.99,,2013-01-01 23:02:00,
2013-01-01 16:12:00,11.0,1.0,-100.00,SW,216,3.0,6.0,65,0.00,,,-99.99,,2013-01-01 23:12:00,
2013-01-01 16:22:00,10.0,1.0,-100.00,SSW,200,2.0,4.0,65,0.00,,,-99.99,,2013-01-01 23:22:00,
2013-01-01 16:32:00,9.0,0.0,-100.00,SW,215,4.0,6.0,67,0.00,,,-99.99,,2013-01-01 23:32:00,
2013-01-01 16:42:00,7.0,-1.0,-100.00,SSW,192,6.0,9.0,71,0.00,,,-99.99,,2013-01-01 23:42:00,
2013-01-01 16:52:00,6.0,-1.0,-100.00,SSW,193,6.0,8.0,74,0.00,,,-99.99,,2013-01-01 23:52:00,
2013-01-01 17:02:00,6.0,1.0,-100.00,SSW,202,4.0,6.0,77,0.00,,,-99.99,,2013-01-02 00:02:00,
2013-01-01 17:12:00,7.0,0.0,-100.00,SW,215,3.0,6.0,74,0.00,,,-99.99,,2013-01-02 00:12:00,
2013-01-01 17:22:00,3.0,-3.0,-100.00,WNW,296,3.0,4.0,77,0.00,,,-99.99,,2013-01-02 00:22:00,
2013-01-01 17:32:00,2.0,-5.0,-100.00,West,277,4.0,6.0,74,0.00,,,-99.99,,2013-01-02 00:32:00,
2013-01-01 17:42:00,2.0,-3.0,-100.00,WNW,298,4.0,9.0,82,0.00,,,-99.99,,2013-01-02 00:42:00,
2013-01-01 17:52:00,2.0,-5.0,-100.00,WNW,289,5.0,7.0,72,0.00,,,-99.99,,2013-01-02 00:52:00,
2013-01-01 18:02:00,4.0,-1.0,-100.00,WNW,298,4.0,6.0,78,0.00,,,-99.99,,2013-01-02 01:02:00,
2013-01-01 18:12:00,3.0,-3.0,-100.00,NW,318,4.0,6.0,78,0.00,,,-99.99,,2013-01-02 01:12:00,
2013-01-01 18:22:00,6.0,1.0,-100.00,NNE,27,2.0,5.0,78,0.00,,,-99.99,,2013-01-02 01:22:00,
2013-01-01 18:32:00,7.0,1.0,-100.00,SE,138,3.0,6.0,77,0.00,,,-99.99,,2013-01-02 01:32:00,
2013-01-01 18:42:00,4.0,-1.0,-100.00,South,169,4.0,7.0,78,0.00,,,-99.99,,2013-01-02 01:42:00,
2013-01-01 18:52:00,6.0,1.0,-100.00,South,175,7.0,11.0,82,0.00,,,-99.99,,2013-01-02 01:52:00,
2013-01-01 19:02:00,7.0,1.0,-100.00,SSE,165,7.0,12.0,74,0.00,,,-99.99,,2013-01-02 02:02:00,
2013-01-01 19:12:00,7.0,1.0,-100.00,South,176,9.0,12.0,77,0.00,,,-99.99,,2013-01-02 02:12:00,
2013-01-01 19:22:00,6.0,1.0,-100.00,South,171,9.0,12.0,80,0.00,,,-99.99,,2013-01-02 02:22:00,
2013-01-01 19:32:00,6.0,1.0,-100.00,East,92,6.0,12.0,80,0.00,,,-99.99,,2013-01-02 02:32:00,
2013-01-01 19:42:00,6.0,2.0,-100.00,NE,52,6.0,10.0,82,0.00,,,-99.99,,2013-01-02 02:42:00,
2013-01-01 19:52:00,7.0,1.0,-100.00,NNE,18,4.0,8.0,76,0.00,,,-99.99,,2013-01-02 02:52:00,
2013-01-01 20:02:00,8.0,2.0,-100.00,ESE,113,4.0,9.0,74,0.00,,,-99.99,,2013-01-02 03:02:00,
2013-01-01 20:12:00,8.0,2.0,-100.00,ESE,119,5.0,9.0,76,0.00,,,-99.99,,2013-01-02 03:12:00,
2013-01-01 20:22:00,8.0,2.0,-100.00,WSW,253,4.0,9.0,75,0.00,,,-99.99,,2013-01-02 03:22:00,
2013-01-01 20:32:00,9.0,3.0,-100.00,South,184,2.0,8.0,76,0.00,,,-99.99,,2013-01-02 03:32:00,
2013-01-01 20:42:00,13.0,5.0,-100.00,SSE,161,4.0,11.0,71,0.00,,,-99.99,,2013-01-02 03:42:00,
2013-01-01 20:52:00,7.0,2.0,-100.00,SE,131,4.0,10.0,80,0.00,,,-99.99,,2013-01-02 03:52:00,
2013-01-01 21:02:00,6.0,2.0,-100.00,ESE,119,6.0,14.0,82,0.00,,,-99.99,,2013-01-02 04:02:00,
2013-01-01 21:12:00,6.0,2.0,-100.00,SE,143,6.0,14.0,81,0.00,,,-99.99,,2013-01-02 04:12:00,
2013-01-01 21:22:00,5.0,1.0,-100.00,SSE,164,5.0,9.0,81,0.00,,,-99.99,,2013-01-02 04:22:00,
2013-01-01 21:32:00,7.0,2.0,-100.00,SSE,154,4.0,7.0,80,0.00,,,-99.99,,2013-01-02 04:32:00,
2013-01-01 21:42:00,15.0,8.0,-100.00,WSW,244,9.0,19.0,71,0.00,,,-99.99,,2013-01-02 04:42:00,
2013-01-01 21:52:00,16.0,8.0,-100.00,WNW,289,16.0,22.0,69,0.00,,,-99.99,,2013-01-02 04:52:00,
2013-01-01 22:03:00,15.0,7.0,-100.00,WNW,284,13.0,17.0,67,0.00,,,-99.99,,2013-01-02 05:03:00,
2013-01-01 22:12:00,15.0,6.0,-100.00,WNW,284,14.0,19.0,66,0.00,,,-99.99,,2013-01-02 05:12:00,
2013-01-01 22:22:00,15.0,5.0,-100.00,West,278,17.0,22.0,64,0.00,,,-99.99,,2013-01-02 05:22:00,
2013-01-01 22:33:00,15.0,5.0,-100.00,West,275,17.0,24.0,64,0.00,,,-99.99,,2013-01-02 05:33:00,
2013-01-01 22:42:00,15.0,6.0,-100.00,West,281,14.0,19.0,66,0.00,,,-99.99,,2013-01-02 05:42:00,
2013-01-01 22:52:00,15.0,6.0,-100.00,WNW,282,17.0,21.0,66,0.00,,,-99.99,,2013-01-02 05:52:00,
2013-01-01 23:02:00,16.0,6.0,-100.00,WNW,295,20.0,24.0,65,0.00,,,-99.99,,2013-01-02 06:02:00,
2013-01-01 23:12:00,16.0,6.0,-100.00,WNW,295,21.0,27.0,64,0.00,,,-99.99,,2013-01-02 06:12:00,
2013-01-01 23:22:00,17.0,7.0,-100.00,WNW,301,21.0,27.0,66,0.00,,,-99.99,,2013-01-02 06:22:00,
2013-01-01 23:32:00,17.0,7.0,-100.00,NW,305,17.0,23.0,66,0.00,,,-99.99,,2013-01-02 06:32:00,
2013-01-01 23:42:00,15.0,6.0,-100.00,WNW,296,21.0,28.0,67,0.00,,,-99.99,,2013-01-02 06:42:00,
2013-01-01 23:52:00,15.0,6.0,-100.00,NW,306,18.0,29.0,67,0.00,,,-99.99,,2013-01-02 06:52:00,